EFJO

Joensuu Airport

Joensuu / Liperi, Finland
TAF EFJO 221137Z 2212/2216 18011KT 9999 SCT020 BKN050 BECMG 2212/2214 19017G30KT
Issued Valid From Valid To
Sep-22 @ 11:37 UTC
(3 hours ago)
Sep-22 @ 12:00 UTC
(3 hours ago)
Sep-22 @ 16:00 UTC
(in 59 minutes)
to
to
TAF EFJO 221137Z 2212/2216 18011KT 9999 SCT020 BKN050 BECMG 2212/2214 19017G30KT
Issued Sep-22 @ 11:37 UTC
(3 hours ago)
Valid From Sep-22 @ 12:00 UTC
(3 hours ago)
Valid To Sep-22 @ 16:00 UTC
(in 59 minutes)
-
-